Time;durP1;ratioP1;P1;durP2;ratioP2;P2;SDS_P1;SDS_P2;PMS_P1;PMS_P2;Temp;Humidity;BMP_temperature;BMP_pressure;BME280_temperature;BME280_humidity;BME280_pressure;Samples;Min_cycle;Max_cycle;Signal;HPM_P1;HPM_P2
2022/12/11 00:02:18;;;;;;;41.30;26.48;;;;;;;;;;5015220;28;20037;-78
2022/12/11 00:04:46;;;;;;;37.97;27.38;;;;;;;;;;5009226;28;20034;-77
2022/12/11 00:07:12;;;;;;;35.42;27.75;;;;;;;;;;5011809;28;20033;-78
2022/12/11 00:09:42;;;;;;;32.33;23.60;;;;;;;;;;5011119;28;20033;-78
2022/12/11 00:12:08;;;;;;;30.15;24.95;;;;;;;;;;5012899;28;20014;-78
2022/12/11 00:14:38;;;;;;;35.83;24.90;;;;;;;;;;5010246;28;20025;-78
2022/12/11 00:17:09;;;;;;;33.72;24.98;;;;;;;;;;5013674;28;20026;-79
2022/12/11 00:19:35;;;;;;;26.90;23.50;;;;;;;;;;5010689;28;20033;-78
2022/12/11 00:22:03;;;;;;;32.35;25.10;;;;;;;;;;5012506;28;20025;-78
2022/12/11 00:24:31;;;;;;;33.63;26.65;;;;;;;;;;5015004;28;20084;-78
2022/12/11 00:27:00;;;;;;;28.80;23.77;;;;;;;;;;5026714;28;20040;-78
2022/12/11 00:29:32;;;;;;;25.63;20.80;;;;;;;;;;5010552;28;20056;-78
2022/12/11 00:31:57;;;;;;;28.10;25.10;;;;;;;;;;5012947;28;20041;-78
2022/12/11 00:34:26;;;;;;;28.35;23.20;;;;;;;;;;5012274;28;20062;-78
2022/12/11 00:36:57;;;;;;;35.53;25.30;;;;;;;;;;5002196;28;20031;-78
2022/12/11 00:39:26;;;;;;;26.70;24.15;;;;;;;;;;5009812;28;20044;-77
2022/12/11 00:41:54;;;;;;;27.80;24.83;;;;;;;;;;5009727;28;20038;-78
2022/12/11 00:44:21;;;;;;;27.17;22.20;;;;;;;;;;5010911;28;20038;-78
2022/12/11 00:46:49;;;;;;;25.27;21.52;;;;;;;;;;5009450;28;20096;-78
2022/12/11 00:49:18;;;;;;;33.50;24.38;;;;;;;;;;5005261;28;20504;-78
2022/12/11 00:51:48;;;;;;;35.42;24.88;;;;;;;;;;5012285;28;20030;-78
2022/12/11 00:54:14;;;;;;;27.95;25.05;;;;;;;;;;5015906;28;20430;-77
2022/12/11 00:56:40;;;;;;;28.25;24.25;;;;;;;;;;5012204;28;20058;-78
2022/12/11 00:59:10;;;;;;;28.48;24.70;;;;;;;;;;5008184;28;20037;-78
2022/12/11 01:01:36;;;;;;;31.40;23.38;;;;;;;;;;5044409;28;20412;-77
2022/12/11 01:04:04;;;;;;;29.70;23.75;;;;;;;;;;5023796;28;20084;-78
2022/12/11 01:06:32;;;;;;;34.40;23.98;;;;;;;;;;5006712;28;20030;-78
2022/12/11 01:11:45;;;;;;;31.27;25.30;;;;;;;;;;5006619;28;20047;-73
2022/12/11 01:14:16;;;;;;;35.40;26.00;;;;;;;;;;4984683;28;20029;-73
2022/12/11 01:16:42;;;;;;;33.33;23.50;;;;;;;;;;4990952;28;20035;-73
2022/12/11 01:19:10;;;;;;;31.02;21.73;;;;;;;;;;4983429;28;20050;-73
2022/12/11 01:21:39;;;;;;;29.52;21.77;;;;;;;;;;4992237;28;20484;-73
2022/12/11 01:24:05;;;;;;;27.38;21.17;;;;;;;;;;5002881;28;20026;-73
2022/12/11 01:26:34;;;;;;;29.88;24.48;;;;;;;;;;4989639;28;20506;-73
2022/12/11 01:29:02;;;;;;;26.60;18.33;;;;;;;;;;4990324;28;20030;-73
2022/12/11 01:31:30;;;;;;;42.22;24.17;;;;;;;;;;4990231;28;20381;-73
2022/12/11 01:33:58;;;;;;;33.83;25.33;;;;;;;;;;4991372;28;20495;-73
2022/12/11 01:36:27;;;;;;;30.33;23.35;;;;;;;;;;4989544;28;20041;-73
2022/12/11 01:38:57;;;;;;;31.80;24.17;;;;;;;;;;4988085;28;20038;-73
2022/12/11 01:41:26;;;;;;;31.10;23.70;;;;;;;;;;4978570;28;20041;-73
2022/12/11 01:44:00;;;;;;;33.78;26.50;;;;;;;;;;4987182;28;20026;-73
2022/12/11 01:46:27;;;;;;;29.70;22.30;;;;;;;;;;4991069;28;20030;-73
2022/12/11 01:48:56;;;;;;;27.42;22.80;;;;;;;;;;4988781;28;20388;-73
2022/12/11 01:51:25;;;;;;;24.75;21.50;;;;;;;;;;4990709;28;20053;-73
2022/12/11 01:53:56;;;;;;;29.27;23.42;;;;;;;;;;4973794;28;20398;-73
2022/12/11 01:56:24;;;;;;;25.77;20.08;;;;;;;;;;4989436;28;20026;-73
2022/12/11 01:58:52;;;;;;;29.60;23.45;;;;;;;;;;5002904;28;20046;-73
2022/12/11 02:01:26;;;;;;;32.13;24.52;;;;;;;;;;4987309;28;20057;-73
2022/12/11 02:03:53;;;;;;;30.60;23.45;;;;;;;;;;4988640;28;20476;-73
2022/12/11 02:06:39;;;;;;;26.08;21.10;;;;;;;;;;4988308;28;20030;-73
2022/12/11 02:09:07;;;;;;;29.00;23.45;;;;;;;;;;4984899;28;20380;-73
2022/12/11 02:11:39;;;;;;;29.85;24.80;;;;;;;;;;4990941;28;20038;-73
2022/12/11 02:14:16;;;;;;;29.52;23.98;;;;;;;;;;4988422;28;20034;-74
2022/12/11 02:17:04;;;;;;;26.90;23.95;;;;;;;;;;4990255;28;20041;-74
2022/12/11 02:19:42;;;;;;;28.40;22.92;;;;;;;;;;4999810;28;20034;-74
2022/12/11 02:22:13;;;;;;;25.88;21.05;;;;;;;;;;4989010;28;20031;-74
2022/12/11 02:25:01;;;;;;;37.13;22.55;;;;;;;;;;4989672;28;20034;-74
2022/12/11 02:27:29;;;;;;;27.17;22.23;;;;;;;;;;4997871;28;20648;-74
2022/12/11 02:30:02;;;;;;;31.02;22.42;;;;;;;;;;4989605;28;20026;-74
2022/12/11 02:32:35;;;;;;;31.52;23.05;;;;;;;;;;4986246;28;20030;-74
2022/12/11 02:35:22;;;;;;;28.17;21.80;;;;;;;;;;4990747;28;20026;-74
2022/12/11 02:37:51;;;;;;;32.92;24.10;;;;;;;;;;4984288;28;20035;-74
2022/12/11 02:40:22;;;;;;;24.98;21.08;;;;;;;;;;4996899;28;20302;-72
2022/12/11 02:42:49;;;;;;;28.55;20.67;;;;;;;;;;4980630;28;20042;-72
2022/12/11 02:45:17;;;;;;;30.35;23.52;;;;;;;;;;4985810;28;20477;-72
2022/12/11 02:47:44;;;;;;;28.30;22.02;;;;;;;;;;4987565;28;20049;-73
2022/12/11 02:50:13;;;;;;;31.65;24.27;;;;;;;;;;4989648;28;20105;-73
2022/12/11 02:52:40;;;;;;;30.58;24.13;;;;;;;;;;4990336;28;20040;-73
2022/12/11 02:55:07;;;;;;;26.58;22.85;;;;;;;;;;4986195;28;20038;-73
2022/12/11 02:57:39;;;;;;;29.00;22.20;;;;;;;;;;4987851;28;20034;-73
2022/12/11 03:00:07;;;;;;;26.75;23.80;;;;;;;;;;4986617;28;20508;-73
2022/12/11 03:02:35;;;;;;;32.05;22.65;;;;;;;;;;4984057;28;20034;-74
2022/12/11 03:05:01;;;;;;;25.42;20.33;;;;;;;;;;5003533;28;20036;-73
2022/12/11 03:07:30;;;;;;;28.98;22.63;;;;;;;;;;4989404;28;20460;-73
2022/12/11 03:09:56;;;;;;;28.85;20.25;;;;;;;;;;4986927;28;20041;-73
2022/12/11 03:12:26;;;;;;;27.27;24.33;;;;;;;;;;4989472;28;20022;-73
2022/12/11 03:14:58;;;;;;;29.50;22.00;;;;;;;;;;5004679;28;20026;-73
2022/12/11 03:17:31;;;;;;;27.90;21.13;;;;;;;;;;4988753;28;20033;-73
2022/12/11 03:20:16;;;;;;;29.23;24.00;;;;;;;;;;4999452;28;20030;-73
2022/12/11 03:22:49;;;;;;;27.50;20.95;;;;;;;;;;4988364;28;20037;-72
2022/12/11 03:25:15;;;;;;;;;;;;;;;;;;5005540;28;20038;-72
2022/12/11 03:27:52;;;;;;;26.65;20.00;;;;;;;;;;4988523;28;20352;-72
2022/12/11 03:30:19;;;;;;;28.80;22.27;;;;;;;;;;4988786;28;20034;-73
2022/12/11 03:32:56;;;;;;;25.55;22.75;;;;;;;;;;4990539;28;20046;-73
2022/12/11 03:35:34;;;;;;;29.10;21.15;;;;;;;;;;4987989;28;20042;-73
2022/12/11 03:38:05;;;;;;;29.55;18.88;;;;;;;;;;4995669;28;20041;-72
2022/12/11 03:40:32;;;;;;;35.67;23.90;;;;;;;;;;4989634;28;20030;-73
2022/12/11 03:42:58;;;;;;;24.83;20.67;;;;;;;;;;4989904;28;20035;-72
2022/12/11 03:45:28;;;;;;;28.17;22.83;;;;;;;;;;4992296;28;20030;-73
2022/12/11 03:48:01;;;;;;;25.05;20.08;;;;;;;;;;4992134;28;20385;-73
2022/12/11 03:50:29;;;;;;;26.67;21.75;;;;;;;;;;4994372;28;20513;-73
2022/12/11 03:52:59;;;;;;;29.92;24.30;;;;;;;;;;4993843;28;20030;-73
2022/12/11 03:55:25;;;;;;;34.95;24.38;;;;;;;;;;4992618;28;20484;-73
2022/12/11 03:57:53;;;;;;;36.58;27.10;;;;;;;;;;4989978;28;20396;-73
2022/12/11 04:00:24;;;;;;;33.55;24.88;;;;;;;;;;4992614;28;20034;-73
2022/12/11 04:05:36;;;;;;;37.22;28.50;;;;;;;;;;4990333;28;20092;-73
2022/12/11 04:08:02;;;;;;;38.40;32.55;;;;;;;;;;4995346;28;20034;-73
2022/12/11 04:10:28;;;;;;;40.33;32.17;;;;;;;;;;4995268;28;20058;-73
2022/12/11 04:12:56;;;;;;;36.35;30.77;;;;;;;;;;4991548;28;20038;-73
2022/12/11 04:15:25;;;;;;;40.72;31.73;;;;;;;;;;4995259;28;20022;-73
2022/12/11 04:26:10;;;;;;;44.05;32.15;;;;;;;;;;4995626;28;20046;-73
2022/12/11 04:28:36;;;;;;;47.17;34.15;;;;;;;;;;4993282;28;20027;-73
2022/12/11 04:31:07;;;;;;;48.40;35.22;;;;;;;;;;5006209;28;20030;-73
2022/12/11 04:33:32;;;;;;;40.38;33.38;;;;;;;;;;4993221;28;20031;-73
2022/12/11 04:36:01;;;;;;;39.28;30.77;;;;;;;;;;4992068;28;20062;-73
2022/12/11 04:38:27;;;;;;;43.28;31.48;;;;;;;;;;4972610;28;20421;-73
2022/12/11 04:40:57;;;;;;;48.05;35.65;;;;;;;;;;4991906;28;20437;-73
2022/12/11 04:43:23;;;;;;;46.17;31.92;;;;;;;;;;4990940;28;20489;-73
2022/12/11 04:45:49;;;;;;;42.97;33.08;;;;;;;;;;4994373;28;20042;-73
2022/12/11 04:48:14;;;;;;;38.42;32.42;;;;;;;;;;4992364;28;20073;-73
2022/12/11 04:50:40;;;;;;;47.95;34.28;;;;;;;;;;4992148;28;20096;-73
2022/12/11 04:53:09;;;;;;;37.10;29.10;;;;;;;;;;4994543;28;20026;-73
2022/12/11 04:55:38;;;;;;;42.58;28.67;;;;;;;;;;4999977;28;20027;-73
2022/12/11 04:58:03;;;;;;;42.17;31.30;;;;;;;;;;4989677;28;20018;-73
2022/12/11 05:00:29;;;;;;;37.00;30.52;;;;;;;;;;4992345;28;20038;-73
2022/12/11 05:02:55;;;;;;;43.67;30.02;;;;;;;;;;4993998;28;20076;-73
2022/12/11 05:05:23;;;;;;;44.90;30.63;;;;;;;;;;4984165;28;20048;-73
2022/12/11 05:07:54;;;;;;;41.75;30.52;;;;;;;;;;4995369;28;20035;-73
2022/12/11 05:10:20;;;;;;;43.15;30.73;;;;;;;;;;4992137;28;20562;-73
2022/12/11 05:12:48;;;;;;;43.15;31.50;;;;;;;;;;4992238;28;20034;-73
2022/12/11 05:15:14;;;;;;;38.08;31.55;;;;;;;;;;4973483;28;20511;-73
2022/12/11 05:17:39;;;;;;;40.17;28.40;;;;;;;;;;4991613;28;20033;-73
2022/12/11 05:20:06;;;;;;;41.80;31.45;;;;;;;;;;4988656;28;20423;-74
2022/12/11 05:22:34;;;;;;;33.53;28.45;;;;;;;;;;4990306;28;20405;-73
2022/12/11 05:24:59;;;;;;;45.55;26.83;;;;;;;;;;4982784;28;20405;-73
2022/12/11 05:27:28;;;;;;;35.85;27.83;;;;;;;;;;4991285;28;20033;-73
2022/12/11 05:29:53;;;;;;;42.50;33.33;;;;;;;;;;4994943;28;20072;-73
2022/12/11 05:32:22;;;;;;;43.42;29.60;;;;;;;;;;4990893;28;20030;-73
2022/12/11 05:34:49;;;;;;;41.58;31.90;;;;;;;;;;4989974;28;20034;-73
2022/12/11 05:37:14;;;;;;;41.88;30.83;;;;;;;;;;4992687;28;20496;-73
2022/12/11 05:39:43;;;;;;;43.05;28.27;;;;;;;;;;4987326;28;20049;-73
2022/12/11 05:42:11;;;;;;;43.97;29.05;;;;;;;;;;4990816;28;20034;-72
2022/12/11 05:44:37;;;;;;;53.78;32.72;;;;;;;;;;4988867;28;20028;-73
2022/12/11 05:47:05;;;;;;;37.33;28.00;;;;;;;;;;4987833;28;20049;-73
2022/12/11 05:49:33;;;;;;;36.40;28.75;;;;;;;;;;4993854;28;20038;-73
2022/12/11 05:52:01;;;;;;;42.65;31.25;;;;;;;;;;4992294;28;20037;-73
2022/12/11 05:54:29;;;;;;;50.92;30.58;;;;;;;;;;4990989;28;20029;-72
2022/12/11 05:56:58;;;;;;;37.28;27.95;;;;;;;;;;4992072;28;20030;-73
2022/12/11 05:59:24;;;;;;;37.65;27.70;;;;;;;;;;4987281;28;20035;-72
2022/12/11 06:01:49;;;;;;;37.70;30.48;;;;;;;;;;4994685;28;20029;-73
2022/12/11 06:04:15;;;;;;;43.08;30.02;;;;;;;;;;4995591;28;20030;-72
2022/12/11 06:06:44;;;;;;;43.55;29.83;;;;;;;;;;4991628;28;20037;-73
2022/12/11 06:09:13;;;;;;;37.85;31.23;;;;;;;;;;4987918;28;20034;-73
2022/12/11 06:11:39;;;;;;;47.22;30.20;;;;;;;;;;4989379;28;20025;-73
2022/12/11 06:14:05;;;;;;;40.83;30.08;;;;;;;;;;4989920;28;20026;-73
2022/12/11 06:16:33;;;;;;;40.60;31.92;;;;;;;;;;4994490;28;20026;-73
2022/12/11 06:19:02;;;;;;;45.92;30.13;;;;;;;;;;4986657;28;20038;-73
2022/12/11 06:21:31;;;;;;;38.85;31.38;;;;;;;;;;5009616;28;20029;-72
2022/12/11 06:23:58;;;;;;;41.90;31.83;;;;;;;;;;4971082;28;20035;-73
2022/12/11 06:26:26;;;;;;;39.20;31.80;;;;;;;;;;5005045;28;20035;-73
2022/12/11 06:28:52;;;;;;;43.33;32.15;;;;;;;;;;5003435;28;20396;-73
2022/12/11 06:31:20;;;;;;;46.10;33.70;;;;;;;;;;4985585;28;20030;-73
2022/12/11 06:33:47;;;;;;;46.28;31.33;;;;;;;;;;4991013;28;20401;-73
2022/12/11 06:36:21;;;;;;;42.47;32.35;;;;;;;;;;5002147;28;20037;-73
2022/12/11 06:38:47;;;;;;;47.88;32.00;;;;;;;;;;5006434;28;20040;-73
2022/12/11 06:41:13;;;;;;;44.53;31.85;;;;;;;;;;4990046;28;20057;-73
2022/12/11 06:43:41;;;;;;;46.20;33.33;;;;;;;;;;4987406;28;20026;-73
2022/12/11 06:46:09;;;;;;;58.05;36.75;;;;;;;;;;4988900;28;20134;-73
2022/12/11 06:48:37;;;;;;;51.85;37.90;;;;;;;;;;4997937;28;20050;-72
2022/12/11 06:51:07;;;;;;;41.63;32.15;;;;;;;;;;4987550;28;20038;-73
2022/12/11 06:53:32;;;;;;;43.42;30.92;;;;;;;;;;4996325;28;20022;-73
2022/12/11 06:56:02;;;;;;;43.80;32.42;;;;;;;;;;4987871;28;20030;-73
2022/12/11 06:58:28;;;;;;;40.58;28.60;;;;;;;;;;5000544;28;20038;-73
2022/12/11 07:00:54;;;;;;;36.28;29.80;;;;;;;;;;4984604;28;20034;-76
2022/12/11 07:03:20;;;;;;;43.05;35.85;;;;;;;;;;4990259;28;20077;-73
2022/12/11 07:05:46;;;;;;;45.90;32.42;;;;;;;;;;4988061;28;20054;-73
2022/12/11 07:08:14;;;;;;;48.70;32.47;;;;;;;;;;4990680;28;20030;-73
2022/12/11 07:10:40;;;;;;;42.20;32.35;;;;;;;;;;5010755;23;20046;-78
2022/12/11 07:13:06;;;;;;;50.15;34.35;;;;;;;;;;5007774;28;20105;-78
2022/12/11 07:15:32;;;;;;;39.35;30.80;;;;;;;;;;5006431;28;20084;-78
2022/12/11 07:17:58;;;;;;;43.45;32.25;;;;;;;;;;5010680;28;20051;-77
2022/12/11 07:20:24;;;;;;;40.67;32.42;;;;;;;;;;4985669;28;20029;-77
2022/12/11 07:22:50;;;;;;;42.53;29.95;;;;;;;;;;4989722;28;20030;-77
2022/12/11 07:25:15;;;;;;;47.25;31.10;;;;;;;;;;4989225;28;20050;-78
2022/12/11 07:27:41;;;;;;;48.20;32.85;;;;;;;;;;4988887;28;20484;-78
2022/12/11 07:30:10;;;;;;;42.70;29.17;;;;;;;;;;5009745;28;20037;-77
2022/12/11 07:32:36;;;;;;;45.15;32.03;;;;;;;;;;4988317;28;20495;-78
2022/12/11 07:35:02;;;;;;;46.78;33.65;;;;;;;;;;4999263;28;20022;-78
2022/12/11 07:37:31;;;;;;;44.53;32.40;;;;;;;;;;4993089;28;20042;-77
2022/12/11 07:39:57;;;;;;;40.67;32.25;;;;;;;;;;4993535;28;20035;-77
2022/12/11 07:42:27;;;;;;;40.53;29.27;;;;;;;;;;4986871;28;20034;-77
2022/12/11 07:44:59;;;;;;;43.30;31.40;;;;;;;;;;4988600;28;20034;-78
2022/12/11 07:47:25;;;;;;;59.20;33.88;;;;;;;;;;4991668;28;20500;-77
2022/12/11 07:49:53;;;;;;;43.65;32.13;;;;;;;;;;4992139;28;20041;-77
2022/12/11 07:52:21;;;;;;;47.85;33.88;;;;;;;;;;4988858;28;20046;-77
2022/12/11 07:54:49;;;;;;;42.17;32.63;;;;;;;;;;4990977;28;20026;-78
2022/12/11 07:57:20;;;;;;;51.03;31.05;;;;;;;;;;4987633;28;20034;-77
2022/12/11 07:59:49;;;;;;;48.15;32.63;;;;;;;;;;4997205;28;20030;-77
2022/12/11 08:02:15;;;;;;;35.90;29.80;;;;;;;;;;4994763;28;20026;-77
2022/12/11 08:04:45;;;;;;;40.72;31.95;;;;;;;;;;5000770;28;20033;-77
2022/12/11 08:07:11;;;;;;;45.33;31.38;;;;;;;;;;4980395;28;20030;-78
2022/12/11 08:09:37;;;;;;;39.60;28.75;;;;;;;;;;4974474;28;20042;-79
2022/12/11 08:12:05;;;;;;;42.58;32.85;;;;;;;;;;4990684;28;20072;-79
2022/12/11 08:14:31;;;;;;;42.38;29.80;;;;;;;;;;4979031;28;20403;-79
2022/12/11 08:17:02;;;;;;;43.17;29.25;;;;;;;;;;4993743;28;20030;-79
2022/12/11 08:19:30;;;;;;;40.75;30.33;;;;;;;;;;4990620;28;20034;-77
2022/12/11 08:22:01;;;;;;;39.47;27.58;;;;;;;;;;4982217;28;20034;-78
2022/12/11 08:24:27;;;;;;;34.33;27.65;;;;;;;;;;4996764;28;20037;-78
2022/12/11 08:26:53;;;;;;;39.95;31.30;;;;;;;;;;4986293;28;20388;-78
2022/12/11 08:29:19;;;;;;;37.22;26.63;;;;;;;;;;4978521;28;20049;-78
2022/12/11 08:31:49;;;;;;;41.83;30.05;;;;;;;;;;4967796;28;20030;-78
2022/12/11 08:34:18;;;;;;;41.45;28.05;;;;;;;;;;4986310;28;20291;-78
2022/12/11 08:36:48;;;;;;;43.15;32.10;;;;;;;;;;4990864;28;20049;-78
2022/12/11 08:39:16;;;;;;;41.22;29.73;;;;;;;;;;4990554;28;20037;-78
2022/12/11 08:41:47;;;;;;;40.95;28.77;;;;;;;;;;4982681;28;20035;-77
2022/12/11 08:44:13;;;;;;;45.03;31.42;;;;;;;;;;4958855;28;20026;-78
2022/12/11 08:46:41;;;;;;;44.38;32.15;;;;;;;;;;4968516;28;20114;-78
2022/12/11 08:49:08;;;;;;;39.47;26.48;;;;;;;;;;4972895;28;20417;-78
2022/12/11 08:51:34;;;;;;;37.28;28.80;;;;;;;;;;4990273;28;20385;-78
2022/12/11 08:54:00;;;;;;;35.53;27.65;;;;;;;;;;4993929;28;20026;-79
2022/12/11 08:56:32;;;;;;;38.45;28.45;;;;;;;;;;4984235;28;20380;-79
2022/12/11 08:58:59;;;;;;;35.05;25.52;;;;;;;;;;4992849;28;20026;-78
2022/12/11 09:01:28;;;;;;;39.92;27.95;;;;;;;;;;4991805;28;20033;-78
2022/12/11 09:03:54;;;;;;;44.58;30.52;;;;;;;;;;4984296;28;20624;-78
2022/12/11 09:06:22;;;;;;;42.80;30.70;;;;;;;;;;4984734;28;20417;-79
2022/12/11 09:08:50;;;;;;;37.28;26.52;;;;;;;;;;4989991;28;20257;-78
2022/12/11 09:11:21;;;;;;;36.53;25.67;;;;;;;;;;5000519;28;20035;-79
2022/12/11 09:13:51;;;;;;;51.55;28.17;;;;;;;;;;4995617;28;20026;-78
2022/12/11 09:16:43;;;;;;;37.03;24.55;;;;;;;;;;4985995;28;20033;-78
2022/12/11 09:19:12;;;;;;;36.20;26.27;;;;;;;;;;4995157;28;20023;-78
2022/12/11 09:21:38;;;;;;;39.13;25.52;;;;;;;;;;4993500;28;20029;-78
2022/12/11 09:24:07;;;;;;;39.35;27.15;;;;;;;;;;4985140;28;20121;-78
2022/12/11 09:26:37;;;;;;;45.35;27.48;;;;;;;;;;4986782;28;20396;-79
2022/12/11 09:29:08;;;;;;;52.97;30.48;;;;;;;;;;4988237;28;20031;-77
2022/12/11 09:31:34;;;;;;;36.05;27.85;;;;;;;;;;4991168;28;20026;-77
2022/12/11 09:34:05;;;;;;;32.20;25.30;;;;;;;;;;4992043;28;20030;-78
2022/12/11 09:36:31;;;;;;;33.78;25.25;;;;;;;;;;4997484;28;20033;-78
2022/12/11 09:39:00;;;;;;;37.38;27.10;;;;;;;;;;4984771;28;20031;-77
2022/12/11 09:41:39;;;;;;;34.63;27.42;;;;;;;;;;4983685;28;20038;-77
2022/12/11 09:44:14;;;;;;;32.30;24.60;;;;;;;;;;4992281;28;20040;-77
2022/12/11 09:46:42;;;;;;;38.33;26.98;;;;;;;;;;4987308;28;20111;-78
2022/12/11 09:49:17;;;;;;;33.15;24.90;;;;;;;;;;4990678;28;20365;-77
2022/12/11 09:51:48;;;;;;;32.17;26.85;;;;;;;;;;4991969;28;20035;-77
2022/12/11 09:54:18;;;;;;;33.03;26.08;;;;;;;;;;4991671;28;20022;-78
2022/12/11 09:56:51;;;;;;;36.00;26.40;;;;;;;;;;4988505;28;20504;-78
2022/12/11 09:59:23;;;;;;;42.40;27.45;;;;;;;;;;4984026;28;20026;-78
2022/12/11 10:01:53;;;;;;;39.55;26.38;;;;;;;;;;4990916;28;20034;-78
2022/12/11 10:04:30;;;;;;;36.60;26.15;;;;;;;;;;4979366;28;20050;-78
2022/12/11 10:07:10;;;;;;;36.15;25.15;;;;;;;;;;4990912;28;20030;-77
2022/12/11 10:09:36;;;;;;;31.73;23.00;;;;;;;;;;4977998;28;20034;-77
2022/12/11 10:12:10;;;;;;;34.83;25.10;;;;;;;;;;4961915;28;20030;-77
2022/12/11 10:14:48;;;;;;;36.20;24.80;;;;;;;;;;4989120;28;20380;-78
2022/12/11 10:17:26;;;;;;;30.63;24.23;;;;;;;;;;4985392;28;20038;-78
2022/12/11 10:19:56;;;;;;;34.72;21.85;;;;;;;;;;4983096;28;20043;-78
2022/12/11 10:22:24;;;;;;;34.38;24.42;;;;;;;;;;4989907;28;20049;-78
2022/12/11 10:24:58;;;;;;;32.72;27.35;;;;;;;;;;4982085;28;20026;-78
2022/12/11 10:27:31;;;;;;;30.98;24.33;;;;;;;;;;5003610;28;20037;-78
2022/12/11 10:30:17;;;;;;;33.60;22.67;;;;;;;;;;4992243;28;20106;-78
2022/12/11 10:32:46;;;;;;;24.67;21.48;;;;;;;;;;4981003;28;20053;-78
2022/12/11 10:35:40;;;;;;;32.90;22.48;;;;;;;;;;4985858;28;20039;-78
2022/12/11 10:38:24;;;;;;;39.42;27.00;;;;;;;;;;4992088;28;20049;-78
2022/12/11 10:41:10;;;;;;;29.75;23.75;;;;;;;;;;4984191;28;20034;-77
2022/12/11 10:43:41;;;;;;;29.55;22.60;;;;;;;;;;4990729;28;20026;-77
2022/12/11 10:46:22;;;;;;;40.53;24.17;;;;;;;;;;4982450;28;20045;-77
2022/12/11 10:48:56;;;;;;;34.58;24.58;;;;;;;;;;4968879;28;20042;-77
2022/12/11 10:51:24;;;;;;;30.08;22.33;;;;;;;;;;4971291;28;20374;-78
2022/12/11 10:53:57;;;;;;;25.63;19.73;;;;;;;;;;4986141;28;20419;-78
2022/12/11 10:56:30;;;;;;;26.90;22.55;;;;;;;;;;4988852;28;20036;-78
2022/12/11 10:58:56;;;;;;;26.75;21.58;;;;;;;;;;4988323;28;20026;-78
2022/12/11 11:01:26;;;;;;;26.75;21.60;;;;;;;;;;4996555;28;20033;-78
2022/12/11 11:04:01;;;;;;;32.60;21.17;;;;;;;;;;4987445;28;20041;-78
2022/12/11 11:06:30;;;;;;;31.80;23.00;;;;;;;;;;4976709;28;20037;-78
2022/12/11 11:08:57;;;;;;;27.60;19.83;;;;;;;;;;4980680;28;20039;-78
2022/12/11 11:11:25;;;;;;;28.38;19.70;;;;;;;;;;4987936;28;20034;-77
2022/12/11 11:14:05;;;;;;;33.08;21.75;;;;;;;;;;4981914;28;20030;-77
2022/12/11 11:16:36;;;;;;;26.15;19.42;;;;;;;;;;4984958;28;20025;-77
2022/12/11 11:19:05;;;;;;;27.77;21.77;;;;;;;;;;4982727;28;20041;-77
2022/12/11 11:21:34;;;;;;;31.05;21.40;;;;;;;;;;4996819;28;20034;-78
2022/12/11 11:24:00;;;;;;;28.75;20.63;;;;;;;;;;4981205;28;20030;-77
2022/12/11 11:26:30;;;;;;;27.30;21.85;;;;;;;;;;4989640;28;20030;-77
2022/12/11 11:28:57;;;;;;;29.58;21.88;;;;;;;;;;4988565;28;20042;-78
2022/12/11 11:31:36;;;;;;;36.53;23.63;;;;;;;;;;4993931;28;20031;-78
2022/12/11 11:34:09;;;;;;;32.05;24.30;;;;;;;;;;4981586;28;20026;-78
2022/12/11 11:36:35;;;;;;;36.22;23.13;;;;;;;;;;4997780;28;20099;-77
2022/12/11 11:39:01;;;;;;;32.10;22.92;;;;;;;;;;4989822;28;20031;-77
2022/12/11 11:41:42;;;;;;;33.47;21.38;;;;;;;;;;4992806;28;20126;-77
2022/12/11 11:44:10;;;;;;;25.90;20.08;;;;;;;;;;4986715;28;20049;-78
2022/12/11 11:46:41;;;;;;;27.08;20.23;;;;;;;;;;4983454;28;20041;-77
2022/12/11 11:49:26;;;;;;;31.88;22.58;;;;;;;;;;4988124;28;20492;-78
2022/12/11 11:51:59;;;;;;;40.50;26.52;;;;;;;;;;4988732;28;20042;-77
2022/12/11 11:54:38;;;;;;;36.67;23.42;;;;;;;;;;4989690;28;20033;-77
2022/12/11 11:57:50;;;;;;;29.98;21.38;;;;;;;;;;4982092;28;20031;-77
2022/12/11 12:00:25;;;;;;;37.28;23.05;;;;;;;;;;4988891;28;20496;-76
2022/12/11 12:02:55;;;;;;;25.25;20.33;;;;;;;;;;4972247;28;20038;-77
2022/12/11 12:05:32;;;;;;;29.63;18.92;;;;;;;;;;5004339;28;20029;-77
2022/12/11 12:08:23;;;;;;;34.33;20.77;;;;;;;;;;4984092;28;20026;-76
2022/12/11 12:10:52;;;;;;;34.90;24.27;;;;;;;;;;4990615;28;20645;-76
2022/12/11 12:13:34;;;;;;;34.35;23.27;;;;;;;;;;4978252;28;20038;-77
2022/12/11 12:16:04;;;;;;;28.33;21.02;;;;;;;;;;4995725;28;20041;-77
2022/12/11 12:19:12;;;;;;;34.83;21.58;;;;;;;;;;4987813;28;20473;-77
2022/12/11 12:21:43;;;;;;;24.33;18.70;;;;;;;;;;4990944;28;20038;-76
2022/12/11 12:24:29;;;;;;;26.25;18.48;;;;;;;;;;4971486;28;20106;-76
2022/12/11 12:27:01;;;;;;;27.55;21.35;;;;;;;;;;4959549;28;20049;-76
2022/12/11 12:29:36;;;;;;;34.08;22.98;;;;;;;;;;4987703;28;20034;-77
2022/12/11 12:32:16;;;;;;;26.25;19.60;;;;;;;;;;4992443;28;20472;-77
2022/12/11 12:34:53;;;;;;;26.60;19.52;;;;;;;;;;4991607;28;20460;-77
2022/12/11 12:37:30;;;;;;;30.38;21.33;;;;;;;;;;4991802;28;20047;-77
2022/12/11 12:40:02;;;;;;;33.58;22.95;;;;;;;;;;4985763;28;20038;-77
2022/12/11 12:42:34;;;;;;;25.60;19.33;;;;;;;;;;4997878;28;20041;-77
2022/12/11 12:45:08;;;;;;;33.83;19.73;;;;;;;;;;4989753;28;20019;-77
2022/12/11 12:47:35;;;;;;;31.15;21.10;;;;;;;;;;4994738;28;20030;-76
2022/12/11 12:50:01;;;;;;;25.70;21.35;;;;;;;;;;5006466;28;20492;-77
2022/12/11 12:52:34;;;;;;;30.60;22.63;;;;;;;;;;4987966;28;20483;-77
2022/12/11 12:55:21;;;;;;;25.57;20.17;;;;;;;;;;4989315;28;20026;-77
2022/12/11 12:57:59;;;;;;;32.42;22.75;;;;;;;;;;4988598;28;20041;-76
2022/12/11 13:00:27;;;;;;;24.38;19.20;;;;;;;;;;4986142;28;20362;-77
2022/12/11 13:02:55;;;;;;;24.10;18.60;;;;;;;;;;4989863;28;20400;-76
2022/12/11 13:05:32;;;;;;;26.02;19.95;;;;;;;;;;4995911;28;20030;-77
2022/12/11 13:07:59;;;;;;;30.92;20.75;;;;;;;;;;5004714;28;20106;-77
2022/12/11 13:10:35;;;;;;;31.65;21.90;;;;;;;;;;4998165;23;20488;-72
2022/12/11 13:13:02;;;;;;;29.83;19.90;;;;;;;;;;4947039;28;20041;-71
2022/12/11 13:15:28;;;;;;;34.33;22.00;;;;;;;;;;4963340;28;20030;-72
2022/12/11 13:17:57;;;;;;;31.73;20.60;;;;;;;;;;4996129;28;20034;-72
2022/12/11 13:20:24;;;;;;;30.63;22.63;;;;;;;;;;4993736;28;20035;-71
2022/12/11 13:22:53;;;;;;;32.08;21.90;;;;;;;;;;4989173;28;20034;-72
2022/12/11 13:25:27;;;;;;;29.63;21.00;;;;;;;;;;4992195;28;20068;-72
2022/12/11 13:28:21;;;;;;;33.88;21.88;;;;;;;;;;4990856;28;20034;-72
2022/12/11 13:30:58;;;;;;;33.17;21.73;;;;;;;;;;4993386;28;20037;-72
2022/12/11 13:33:24;;;;;;;27.27;17.77;;;;;;;;;;4985894;28;20102;-72
2022/12/11 13:36:07;;;;;;;32.75;21.98;;;;;;;;;;4992624;28;20026;-71
2022/12/11 13:38:43;;;;;;;25.60;20.93;;;;;;;;;;4990810;28;20026;-71
2022/12/11 13:41:10;;;;;;;28.83;20.35;;;;;;;;;;4994726;28;20045;-72
2022/12/11 13:43:40;;;;;;;29.05;21.13;;;;;;;;;;4990906;28;20037;-72
2022/12/11 13:46:10;;;;;;;30.92;21.17;;;;;;;;;;4996342;28;20026;-73
2022/12/11 13:48:45;;;;;;;36.80;23.20;;;;;;;;;;4982030;28;20056;-72
2022/12/11 13:51:18;;;;;;;35.03;22.38;;;;;;;;;;4982788;28;20034;-71
2022/12/11 13:53:44;;;;;;;28.50;20.52;;;;;;;;;;4987146;28;20535;-71
2022/12/11 13:56:18;;;;;;;32.42;22.60;;;;;;;;;;4987221;28;20038;-71
2022/12/11 13:58:44;;;;;;;29.75;21.42;;;;;;;;;;4986229;28;20033;-72
2022/12/11 14:01:14;;;;;;;25.73;19.90;;;;;;;;;;4989426;28;20026;-72
2022/12/11 14:04:06;;;;;;;29.40;21.17;;;;;;;;;;4989027;28;20041;-71
2022/12/11 14:06:33;;;;;;;26.17;18.77;;;;;;;;;;4985347;28;20046;-71
2022/12/11 14:09:05;;;;;;;36.97;21.05;;;;;;;;;;4989910;28;20026;-72
2022/12/11 14:11:39;;;;;;;27.85;18.83;;;;;;;;;;4983651;28;20034;-72
2022/12/11 14:14:19;;;;;;;32.03;20.40;;;;;;;;;;4989469;28;20027;-72
2022/12/11 14:16:46;;;;;;;30.52;20.77;;;;;;;;;;4989513;28;20089;-74
2022/12/11 14:19:16;;;;;;;29.10;20.73;;;;;;;;;;4986110;28;20042;-72
2022/12/11 14:21:58;;;;;;;27.75;19.83;;;;;;;;;;4986485;28;20026;-72
2022/12/11 14:24:27;;;;;;;28.50;22.35;;;;;;;;;;4991261;28;20034;-72
2022/12/11 14:26:56;;;;;;;29.23;20.00;;;;;;;;;;4987448;28;20035;-72
2022/12/11 14:29:31;;;;;;;29.10;20.67;;;;;;;;;;4986950;28;20473;-72
2022/12/11 14:32:04;;;;;;;29.30;22.67;;;;;;;;;;4969101;28;20053;-72
2022/12/11 14:34:33;;;;;;;34.35;24.33;;;;;;;;;;4977046;28;20503;-71
2022/12/11 14:37:01;;;;;;;27.38;19.48;;;;;;;;;;4972922;28;20026;-70
2022/12/11 14:39:32;;;;;;;28.90;20.08;;;;;;;;;;4974423;28;20027;-71
2022/12/11 14:42:07;;;;;;;29.33;22.77;;;;;;;;;;4977018;28;20061;-71
2022/12/11 14:44:51;;;;;;;34.17;23.30;;;;;;;;;;4949325;28;20042;-73
2022/12/11 14:47:46;;;;;;;36.50;24.80;;;;;;;;;;4991212;28;20030;-72
2022/12/11 14:50:34;;;;;;;33.83;23.02;;;;;;;;;;4980605;28;20053;-71
2022/12/11 14:53:08;;;;;;;31.20;24.30;;;;;;;;;;4989589;28;20030;-71